sensor_id;sensor_type;location;lat;lon;timestamp;P1;durP1;ratioP1;P2;durP2;ratioP2
31043;SDS011;17710;52.520;13.352;2023-10-09T00:00:24;5.38;;;1.83;;
31043;SDS011;17710;52.520;13.352;2023-10-09T00:03:16;4.47;;;1.50;;
31043;SDS011;17710;52.520;13.352;2023-10-09T00:05:44;4.50;;;2.00;;
31043;SDS011;17710;52.520;13.352;2023-10-09T00:08:12;5.10;;;2.00;;
31043;SDS011;17710;52.520;13.352;2023-10-09T00:10:42;3.90;;;1.70;;
31043;SDS011;17710;52.520;13.352;2023-10-09T00:13:14;5.90;;;2.03;;
31043;SDS011;17710;52.520;13.352;2023-10-09T00:15:41;5.70;;;1.92;;
31043;SDS011;17710;52.520;13.352;2023-10-09T00:18:08;5.60;;;1.70;;
31043;SDS011;17710;52.520;13.352;2023-10-09T00:20:37;1.92;;;1.50;;
31043;SDS011;17710;52.520;13.352;2023-10-09T00:23:08;5.72;;;1.60;;
31043;SDS011;17710;52.520;13.352;2023-10-09T00:25:47;3.63;;;2.10;;
31043;SDS011;17710;52.520;13.352;2023-10-09T00:28:31;6.13;;;1.75;;
31043;SDS011;17710;52.520;13.352;2023-10-09T00:30:59;4.00;;;1.98;;
31043;SDS011;17710;52.520;13.352;2023-10-09T00:33:29;4.07;;;1.98;;
31043;SDS011;17710;52.520;13.352;2023-10-09T00:35:57;4.28;;;1.65;;
31043;SDS011;17710;52.520;13.352;2023-10-09T00:38:35;3.63;;;1.98;;
31043;SDS011;17710;52.520;13.352;2023-10-09T00:41:03;5.43;;;2.05;;
31043;SDS011;17710;52.520;13.352;2023-10-09T00:43:35;3.65;;;2.00;;
31043;SDS011;17710;52.520;13.352;2023-10-09T00:46:03;3.63;;;1.75;;
31043;SDS011;17710;52.520;13.352;2023-10-09T00:48:39;3.28;;;1.85;;
31043;SDS011;17710;52.520;13.352;2023-10-09T00:51:06;3.60;;;2.10;;
31043;SDS011;17710;52.520;13.352;2023-10-09T00:53:43;5.65;;;2.10;;
31043;SDS011;17710;52.520;13.352;2023-10-09T00:56:14;4.95;;;2.10;;
31043;SDS011;17710;52.520;13.352;2023-10-09T00:58:53;4.22;;;1.95;;
31043;SDS011;17710;52.520;13.352;2023-10-09T01:01:25;4.45;;;1.73;;
31043;SDS011;17710;52.520;13.352;2023-10-09T01:03:59;4.70;;;2.03;;
31043;SDS011;17710;52.520;13.352;2023-10-09T01:06:31;5.28;;;2.00;;
31043;SDS011;17710;52.520;13.352;2023-10-09T01:09:09;4.75;;;1.88;;
31043;SDS011;17710;52.520;13.352;2023-10-09T01:11:37;3.15;;;1.88;;
31043;SDS011;17710;52.520;13.352;2023-10-09T01:14:13;5.78;;;2.20;;
31043;SDS011;17710;52.520;13.352;2023-10-09T01:16:39;4.75;;;2.10;;
31043;SDS011;17710;52.520;13.352;2023-10-09T01:19:08;4.05;;;2.38;;
31043;SDS011;17710;52.520;13.352;2023-10-09T01:21:45;5.63;;;2.30;;
31043;SDS011;17710;52.520;13.352;2023-10-09T01:24:14;3.03;;;1.80;;
31043;SDS011;17710;52.520;13.352;2023-10-09T01:26:44;4.38;;;2.55;;
31043;SDS011;17710;52.520;13.352;2023-10-09T01:29:11;7.03;;;2.15;;
31043;SDS011;17710;52.520;13.352;2023-10-09T01:31:41;4.57;;;2.10;;
31043;SDS011;17710;52.520;13.352;2023-10-09T01:34:16;5.97;;;2.13;;
31043;SDS011;17710;52.520;13.352;2023-10-09T01:36:44;4.95;;;2.15;;
31043;SDS011;17710;52.520;13.352;2023-10-09T01:39:15;3.38;;;2.17;;
31043;SDS011;17710;52.520;13.352;2023-10-09T01:41:49;3.33;;;2.08;;
31043;SDS011;17710;52.520;13.352;2023-10-09T01:44:17;5.43;;;2.33;;
31043;SDS011;17710;52.520;13.352;2023-10-09T01:46:45;6.95;;;2.38;;
31043;SDS011;17710;52.520;13.352;2023-10-09T01:49:12;5.72;;;2.25;;
31043;SDS011;17710;52.520;13.352;2023-10-09T01:51:46;5.10;;;2.40;;
31043;SDS011;17710;52.520;13.352;2023-10-09T01:54:13;7.53;;;2.75;;
31043;SDS011;17710;52.520;13.352;2023-10-09T01:56:59;4.57;;;2.28;;
31043;SDS011;17710;52.520;13.352;2023-10-09T01:59:30;5.30;;;2.13;;
31043;SDS011;17710;52.520;13.352;2023-10-09T02:01:56;9.98;;;2.75;;
31043;SDS011;17710;52.520;13.352;2023-10-09T02:04:23;4.60;;;2.33;;
31043;SDS011;17710;52.520;13.352;2023-10-09T02:06:50;8.27;;;2.33;;
31043;SDS011;17710;52.520;13.352;2023-10-09T02:09:17;6.90;;;2.15;;
31043;SDS011;17710;52.520;13.352;2023-10-09T02:11:48;4.65;;;2.33;;
31043;SDS011;17710;52.520;13.352;2023-10-09T02:14:17;4.95;;;2.30;;
31043;SDS011;17710;52.520;13.352;2023-10-09T02:16:45;4.43;;;2.15;;
31043;SDS011;17710;52.520;13.352;2023-10-09T02:19:28;8.57;;;2.58;;
31043;SDS011;17710;52.520;13.352;2023-10-09T02:21:58;8.45;;;2.63;;
31043;SDS011;17710;52.520;13.352;2023-10-09T02:24:26;8.40;;;2.60;;
31043;SDS011;17710;52.520;13.352;2023-10-09T02:26:53;10.95;;;2.90;;
31043;SDS011;17710;52.520;13.352;2023-10-09T02:29:33;8.27;;;2.42;;
31043;SDS011;17710;52.520;13.352;2023-10-09T02:32:03;5.32;;;2.45;;
31043;SDS011;17710;52.520;13.352;2023-10-09T02:34:39;7.50;;;2.67;;
31043;SDS011;17710;52.520;13.352;2023-10-09T02:37:05;15.57;;;3.25;;
31043;SDS011;17710;52.520;13.352;2023-10-09T02:39:36;6.00;;;2.90;;
31043;SDS011;17710;52.520;13.352;2023-10-09T02:42:08;5.43;;;2.80;;
31043;SDS011;17710;52.520;13.352;2023-10-09T02:44:46;7.53;;;2.92;;
31043;SDS011;17710;52.520;13.352;2023-10-09T02:47:15;5.95;;;2.63;;
31043;SDS011;17710;52.520;13.352;2023-10-09T02:49:45;7.88;;;2.33;;
31043;SDS011;17710;52.520;13.352;2023-10-09T02:52:14;3.42;;;2.53;;
31043;SDS011;17710;52.520;13.352;2023-10-09T02:54:43;8.50;;;2.65;;
31043;SDS011;17710;52.520;13.352;2023-10-09T02:57:12;7.50;;;3.38;;
31043;SDS011;17710;52.520;13.352;2023-10-09T02:59:48;5.50;;;2.63;;
31043;SDS011;17710;52.520;13.352;2023-10-09T03:02:16;4.03;;;2.92;;
31043;SDS011;17710;52.520;13.352;2023-10-09T03:04:43;8.93;;;3.35;;
31043;SDS011;17710;52.520;13.352;2023-10-09T03:07:10;4.55;;;3.10;;
31043;SDS011;17710;52.520;13.352;2023-10-09T03:09:38;6.25;;;2.50;;
31043;SDS011;17710;52.520;13.352;2023-10-09T03:12:06;8.85;;;3.22;;
31043;SDS011;17710;52.520;13.352;2023-10-09T03:14:35;5.20;;;2.75;;
31043;SDS011;17710;52.520;13.352;2023-10-09T03:17:04;5.55;;;2.90;;
31043;SDS011;17710;52.520;13.352;2023-10-09T03:19:32;7.43;;;3.00;;
31043;SDS011;17710;52.520;13.352;2023-10-09T03:22:02;5.40;;;3.33;;
31043;SDS011;17710;52.520;13.352;2023-10-09T03:24:29;11.15;;;3.15;;
31043;SDS011;17710;52.520;13.352;2023-10-09T03:26:56;7.18;;;2.53;;
31043;SDS011;17710;52.520;13.352;2023-10-09T03:29:23;7.35;;;2.72;;
31043;SDS011;17710;52.520;13.352;2023-10-09T03:31:50;5.22;;;2.50;;
31043;SDS011;17710;52.520;13.352;2023-10-09T03:34:18;4.13;;;2.15;;
31043;SDS011;17710;52.520;13.352;2023-10-09T03:36:45;3.45;;;2.30;;
31043;SDS011;17710;52.520;13.352;2023-10-09T03:39:13;5.30;;;2.33;;
31043;SDS011;17710;52.520;13.352;2023-10-09T03:41:49;6.07;;;3.10;;
31043;SDS011;17710;52.520;13.352;2023-10-09T03:44:16;6.15;;;2.60;;
31043;SDS011;17710;52.520;13.352;2023-10-09T03:46:43;9.23;;;2.50;;
31043;SDS011;17710;52.520;13.352;2023-10-09T03:49:10;5.47;;;2.25;;
31043;SDS011;17710;52.520;13.352;2023-10-09T03:51:40;6.03;;;2.95;;
31043;SDS011;17710;52.520;13.352;2023-10-09T03:54:07;6.15;;;2.58;;
31043;SDS011;17710;52.520;13.352;2023-10-09T03:56:34;6.38;;;2.80;;
31043;SDS011;17710;52.520;13.352;2023-10-09T03:59:00;5.88;;;2.83;;
31043;SDS011;17710;52.520;13.352;2023-10-09T04:01:29;10.25;;;2.72;;
31043;SDS011;17710;52.520;13.352;2023-10-09T04:04:03;8.10;;;2.35;;
31043;SDS011;17710;52.520;13.352;2023-10-09T04:06:31;4.63;;;2.20;;
31043;SDS011;17710;52.520;13.352;2023-10-09T04:09:00;6.78;;;2.20;;
31043;SDS011;17710;52.520;13.352;2023-10-09T04:11:39;6.15;;;2.30;;
31043;SDS011;17710;52.520;13.352;2023-10-09T04:14:08;7.90;;;2.53;;
31043;SDS011;17710;52.520;13.352;2023-10-09T04:16:39;7.53;;;2.53;;
31043;SDS011;17710;52.520;13.352;2023-10-09T04:19:16;7.30;;;2.55;;
31043;SDS011;17710;52.520;13.352;2023-10-09T04:21:47;6.97;;;3.22;;
31043;SDS011;17710;52.520;13.352;2023-10-09T04:24:14;4.82;;;2.45;;
31043;SDS011;17710;52.520;13.352;2023-10-09T04:26:50;4.30;;;2.10;;
31043;SDS011;17710;52.520;13.352;2023-10-09T04:29:22;6.35;;;2.15;;
31043;SDS011;17710;52.520;13.352;2023-10-09T04:32:03;4.38;;;2.30;;
31043;SDS011;17710;52.520;13.352;2023-10-09T04:34:32;6.30;;;2.55;;
31043;SDS011;17710;52.520;13.352;2023-10-09T04:37:01;3.97;;;2.00;;
31043;SDS011;17710;52.520;13.352;2023-10-09T04:39:46;4.68;;;2.40;;
31043;SDS011;17710;52.520;13.352;2023-10-09T04:42:13;4.43;;;2.40;;
31043;SDS011;17710;52.520;13.352;2023-10-09T04:44:51;4.47;;;1.95;;
31043;SDS011;17710;52.520;13.352;2023-10-09T04:47:36;3.95;;;2.50;;
31043;SDS011;17710;52.520;13.352;2023-10-09T04:50:03;6.40;;;2.50;;
31043;SDS011;17710;52.520;13.352;2023-10-09T04:52:36;7.50;;;3.05;;
31043;SDS011;17710;52.520;13.352;2023-10-09T04:55:18;4.40;;;3.20;;
31043;SDS011;17710;52.520;13.352;2023-10-09T04:57:49;4.13;;;2.17;;
31043;SDS011;17710;52.520;13.352;2023-10-09T05:00:33;4.07;;;2.47;;
31043;SDS011;17710;52.520;13.352;2023-10-09T05:03:25;4.18;;;2.38;;
31043;SDS011;17710;52.520;13.352;2023-10-09T05:05:53;5.00;;;2.70;;
31043;SDS011;17710;52.520;13.352;2023-10-09T05:08:45;7.30;;;2.90;;
31043;SDS011;17710;52.520;13.352;2023-10-09T05:11:13;3.97;;;2.30;;
31043;SDS011;17710;52.520;13.352;2023-10-09T05:13:59;6.88;;;3.20;;
31043;SDS011;17710;52.520;13.352;2023-10-09T05:16:36;5.95;;;2.78;;
31043;SDS011;17710;52.520;13.352;2023-10-09T05:19:12;4.97;;;2.80;;
31043;SDS011;17710;52.520;13.352;2023-10-09T05:21:54;3.78;;;2.75;;
31043;SDS011;17710;52.520;13.352;2023-10-09T05:24:23;3.78;;;2.22;;
31043;SDS011;17710;52.520;13.352;2023-10-09T05:26:54;4.03;;;2.78;;
31043;SDS011;17710;52.520;13.352;2023-10-09T05:29:39;3.55;;;2.40;;
31043;SDS011;17710;52.520;13.352;2023-10-09T05:32:24;8.63;;;2.90;;
31043;SDS011;17710;52.520;13.352;2023-10-09T05:34:54;5.15;;;2.78;;
31043;SDS011;17710;52.520;13.352;2023-10-09T05:37:40;4.80;;;3.15;;
31043;SDS011;17710;52.520;13.352;2023-10-09T05:40:08;5.22;;;2.78;;
31043;SDS011;17710;52.520;13.352;2023-10-09T05:42:49;5.25;;;2.95;;
31043;SDS011;17710;52.520;13.352;2023-10-09T05:45:24;6.95;;;2.35;;
31043;SDS011;17710;52.520;13.352;2023-10-09T05:48:09;6.55;;;2.88;;
31043;SDS011;17710;52.520;13.352;2023-10-09T05:50:50;7.13;;;2.85;;
31043;SDS011;17710;52.520;13.352;2023-10-09T05:53:30;6.47;;;3.20;;
31043;SDS011;17710;52.520;13.352;2023-10-09T05:56:21;4.43;;;2.70;;
31043;SDS011;17710;52.520;13.352;2023-10-09T05:59:06;7.38;;;2.75;;
31043;SDS011;17710;52.520;13.352;2023-10-09T06:01:50;4.72;;;2.72;;
31043;SDS011;17710;52.520;13.352;2023-10-09T06:04:34;6.93;;;3.35;;
31043;SDS011;17710;52.520;13.352;2023-10-09T06:07:14;4.75;;;2.55;;
31043;SDS011;17710;52.520;13.352;2023-10-09T06:09:48;6.85;;;3.15;;
31043;SDS011;17710;52.520;13.352;2023-10-09T06:12:19;9.38;;;2.38;;
31043;SDS011;17710;52.520;13.352;2023-10-09T06:15:15;8.07;;;2.90;;
31043;SDS011;17710;52.520;13.352;2023-10-09T06:17:56;6.78;;;2.63;;
31043;SDS011;17710;52.520;13.352;2023-10-09T06:20:41;3.20;;;2.40;;
31043;SDS011;17710;52.520;13.352;2023-10-09T06:23:31;6.22;;;2.83;;
31043;SDS011;17710;52.520;13.352;2023-10-09T06:26:12;7.50;;;2.72;;
31043;SDS011;17710;52.520;13.352;2023-10-09T06:28:49;6.43;;;2.65;;
31043;SDS011;17710;52.520;13.352;2023-10-09T06:31:37;7.57;;;2.55;;
31043;SDS011;17710;52.520;13.352;2023-10-09T06:34:18;4.90;;;2.83;;
31043;SDS011;17710;52.520;13.352;2023-10-09T06:36:46;6.65;;;2.53;;
31043;SDS011;17710;52.520;13.352;2023-10-09T06:39:18;6.30;;;2.63;;
31043;SDS011;17710;52.520;13.352;2023-10-09T06:42:02;6.95;;;3.45;;
31043;SDS011;17710;52.520;13.352;2023-10-09T06:44:35;4.47;;;2.38;;
31043;SDS011;17710;52.520;13.352;2023-10-09T06:47:16;5.32;;;2.92;;
31043;SDS011;17710;52.520;13.352;2023-10-09T06:49:43;5.40;;;2.60;;
31043;SDS011;17710;52.520;13.352;2023-10-09T06:52:29;8.50;;;2.70;;
31043;SDS011;17710;52.520;13.352;2023-10-09T06:55:15;4.90;;;2.53;;
31043;SDS011;17710;52.520;13.352;2023-10-09T06:57:45;7.65;;;2.78;;
31043;SDS011;17710;52.520;13.352;2023-10-09T07:00:14;6.28;;;2.83;;
31043;SDS011;17710;52.520;13.352;2023-10-09T07:02:56;12.07;;;2.55;;
31043;SDS011;17710;52.520;13.352;2023-10-09T07:05:23;5.57;;;2.40;;
31043;SDS011;17710;52.520;13.352;2023-10-09T07:08:02;14.95;;;3.85;;
31043;SDS011;17710;52.520;13.352;2023-10-09T07:10:48;33.20;;;5.77;;
31043;SDS011;17710;52.520;13.352;2023-10-09T07:13:38;7.53;;;2.60;;
31043;SDS011;17710;52.520;13.352;2023-10-09T07:18:49;3.95;;;2.45;;
31043;SDS011;17710;52.520;13.352;2023-10-09T07:21:19;8.55;;;2.67;;
31043;SDS011;17710;52.520;13.352;2023-10-09T07:23:53;6.07;;;2.80;;
31043;SDS011;17710;52.520;13.352;2023-10-09T07:26:22;4.85;;;2.88;;
31043;SDS011;17710;52.520;13.352;2023-10-09T07:29:02;7.50;;;2.47;;
31043;SDS011;17710;52.520;13.352;2023-10-09T07:31:41;5.07;;;2.63;;
31043;SDS011;17710;52.520;13.352;2023-10-09T07:34:12;5.32;;;2.70;;
31043;SDS011;17710;52.520;13.352;2023-10-09T07:36:56;5.95;;;3.05;;
31043;SDS011;17710;52.520;13.352;2023-10-09T07:39:22;4.63;;;2.50;;
31043;SDS011;17710;52.520;13.352;2023-10-09T07:41:49;4.97;;;2.50;;
31043;SDS011;17710;52.520;13.352;2023-10-09T07:44:21;18.80;;;3.95;;
31043;SDS011;17710;52.520;13.352;2023-10-09T07:47:02;7.68;;;2.72;;
31043;SDS011;17710;52.520;13.352;2023-10-09T07:49:46;37.45;;;5.88;;
31043;SDS011;17710;52.520;13.352;2023-10-09T07:52:18;12.20;;;3.45;;
31043;SDS011;17710;52.520;13.352;2023-10-09T07:54:51;8.25;;;3.40;;
31043;SDS011;17710;52.520;13.352;2023-10-09T07:57:26;6.00;;;3.70;;
31043;SDS011;17710;52.520;13.352;2023-10-09T08:00:03;5.57;;;2.95;;
31043;SDS011;17710;52.520;13.352;2023-10-09T08:02:58;6.60;;;2.97;;
31043;SDS011;17710;52.520;13.352;2023-10-09T08:05:26;5.57;;;3.45;;
31043;SDS011;17710;52.520;13.352;2023-10-09T08:07:58;6.03;;;3.30;;
31043;SDS011;17710;52.520;13.352;2023-10-09T08:10:45;10.27;;;3.15;;
31043;SDS011;17710;52.520;13.352;2023-10-09T08:13:29;7.05;;;3.05;;
31043;SDS011;17710;52.520;13.352;2023-10-09T08:16:21;5.30;;;3.45;;
31043;SDS011;17710;52.520;13.352;2023-10-09T08:18:49;5.50;;;2.92;;
31043;SDS011;17710;52.520;13.352;2023-10-09T08:21:18;6.00;;;3.10;;
31043;SDS011;17710;52.520;13.352;2023-10-09T08:24:06;5.05;;;3.47;;
31043;SDS011;17710;52.520;13.352;2023-10-09T08:26:54;10.97;;;3.37;;
31043;SDS011;17710;52.520;13.352;2023-10-09T08:29:37;7.97;;;2.72;;
31043;SDS011;17710;52.520;13.352;2023-10-09T08:32:03;9.40;;;2.88;;
31043;SDS011;17710;52.520;13.352;2023-10-09T08:34:43;7.18;;;3.80;;
31043;SDS011;17710;52.520;13.352;2023-10-09T08:37:15;7.07;;;3.80;;
31043;SDS011;17710;52.520;13.352;2023-10-09T08:42:53;7.00;;;3.50;;
31043;SDS011;17710;52.520;13.352;2023-10-09T08:45:21;8.13;;;3.38;;
31043;SDS011;17710;52.520;13.352;2023-10-09T08:47:50;7.82;;;2.58;;
31043;SDS011;17710;52.520;13.352;2023-10-09T08:50:20;6.53;;;3.15;;
31043;SDS011;17710;52.520;13.352;2023-10-09T08:52:48;7.30;;;3.40;;
31043;SDS011;17710;52.520;13.352;2023-10-09T08:55:16;6.75;;;2.95;;
31043;SDS011;17710;52.520;13.352;2023-10-09T08:57:43;9.80;;;3.15;;
31043;SDS011;17710;52.520;13.352;2023-10-09T09:00:16;11.77;;;3.47;;
31043;SDS011;17710;52.520;13.352;2023-10-09T09:02:48;5.88;;;2.85;;
31043;SDS011;17710;52.520;13.352;2023-10-09T09:05:18;5.57;;;3.15;;
31043;SDS011;17710;52.520;13.352;2023-10-09T09:07:45;9.90;;;4.78;;
31043;SDS011;17710;52.520;13.352;2023-10-09T09:10:14;9.25;;;3.40;;
31043;SDS011;17710;52.520;13.352;2023-10-09T09:12:46;6.68;;;3.35;;
31043;SDS011;17710;52.520;13.352;2023-10-09T09:15:18;5.70;;;2.67;;
31043;SDS011;17710;52.520;13.352;2023-10-09T09:17:46;9.00;;;3.10;;
31043;SDS011;17710;52.520;13.352;2023-10-09T09:20:20;5.43;;;2.83;;
31043;SDS011;17710;52.520;13.352;2023-10-09T09:22:52;5.47;;;3.05;;
31043;SDS011;17710;52.520;13.352;2023-10-09T09:25:22;6.40;;;3.20;;
31043;SDS011;17710;52.520;13.352;2023-10-09T09:27:50;11.55;;;3.95;;
31043;SDS011;17710;52.520;13.352;2023-10-09T09:30:22;8.20;;;2.97;;
31043;SDS011;17710;52.520;13.352;2023-10-09T09:32:50;8.02;;;2.97;;
31043;SDS011;17710;52.520;13.352;2023-10-09T09:38:04;4.43;;;2.60;;
31043;SDS011;17710;52.520;13.352;2023-10-09T09:40:33;29.42;;;4.72;;
31043;SDS011;17710;52.520;13.352;2023-10-09T09:43:06;12.30;;;3.63;;
31043;SDS011;17710;52.520;13.352;2023-10-09T09:45:42;9.52;;;3.50;;
31043;SDS011;17710;52.520;13.352;2023-10-09T09:48:13;5.47;;;2.63;;
31043;SDS011;17710;52.520;13.352;2023-10-09T09:50:41;4.80;;;3.05;;
31043;SDS011;17710;52.520;13.352;2023-10-09T09:53:10;5.25;;;2.95;;
31043;SDS011;17710;52.520;13.352;2023-10-09T09:55:44;6.18;;;3.35;;
31043;SDS011;17710;52.520;13.352;2023-10-09T09:58:17;5.37;;;3.07;;
31043;SDS011;17710;52.520;13.352;2023-10-09T10:00:45;5.93;;;2.97;;
31043;SDS011;17710;52.520;13.352;2023-10-09T10:03:18;6.43;;;3.20;;
31043;SDS011;17710;52.520;13.352;2023-10-09T10:05:48;7.10;;;3.63;;
31043;SDS011;17710;52.520;13.352;2023-10-09T10:08:17;7.00;;;3.20;;
31043;SDS011;17710;52.520;13.352;2023-10-09T10:10:47;9.10;;;3.80;;
31043;SDS011;17710;52.520;13.352;2023-10-09T10:13:15;6.10;;;3.40;;
31043;SDS011;17710;52.520;13.352;2023-10-09T10:15:58;6.88;;;3.63;;
31043;SDS011;17710;52.520;13.352;2023-10-09T10:18:57;8.98;;;3.90;;
31043;SDS011;17710;52.520;13.352;2023-10-09T10:21:46;6.55;;;4.00;;
31043;SDS011;17710;52.520;13.352;2023-10-09T10:27:19;6.18;;;3.50;;
31043;SDS011;17710;52.520;13.352;2023-10-09T10:32:56;6.45;;;4.13;;
31043;SDS011;17710;52.520;13.352;2023-10-09T10:35:34;7.45;;;4.30;;
31043;SDS011;17710;52.520;13.352;2023-10-09T10:38:23;6.60;;;4.43;;
31043;SDS011;17710;52.520;13.352;2023-10-09T10:41:12;6.28;;;4.22;;
31043;SDS011;17710;52.520;13.352;2023-10-09T10:43:42;7.85;;;4.20;;
31043;SDS011;17710;52.520;13.352;2023-10-09T10:46:26;9.73;;;4.10;;
31043;SDS011;17710;52.520;13.352;2023-10-09T10:49:07;5.45;;;3.72;;
31043;SDS011;17710;52.520;13.352;2023-10-09T10:51:41;8.07;;;4.70;;
31043;SDS011;17710;52.520;13.352;2023-10-09T10:54:19;7.10;;;4.55;;
31043;SDS011;17710;52.520;13.352;2023-10-09T10:59:54;5.53;;;4.20;;
31043;SDS011;17710;52.520;13.352;2023-10-09T11:02:39;8.00;;;4.50;;
31043;SDS011;17710;52.520;13.352;2023-10-09T11:05:06;5.32;;;4.00;;
31043;SDS011;17710;52.520;13.352;2023-10-09T11:07:48;10.88;;;4.20;;
31043;SDS011;17710;52.520;13.352;2023-10-09T11:10:21;5.90;;;4.68;;
31043;SDS011;17710;52.520;13.352;2023-10-09T11:12:56;7.35;;;4.72;;
31043;SDS011;17710;52.520;13.352;2023-10-09T11:15:38;6.57;;;4.30;;
31043;SDS011;17710;52.520;13.352;2023-10-09T11:18:11;8.98;;;4.70;;
31043;SDS011;17710;52.520;13.352;2023-10-09T11:20:44;4.50;;;3.58;;
31043;SDS011;17710;52.520;13.352;2023-10-09T11:23:22;8.30;;;4.00;;
31043;SDS011;17710;52.520;13.352;2023-10-09T11:25:57;10.77;;;4.85;;
31043;SDS011;17710;52.520;13.352;2023-10-09T11:28:44;6.78;;;4.00;;
31043;SDS011;17710;52.520;13.352;2023-10-09T11:31:15;10.70;;;5.15;;
31043;SDS011;17710;52.520;13.352;2023-10-09T11:33:44;6.88;;;4.68;;
31043;SDS011;17710;52.520;13.352;2023-10-09T11:36:12;7.65;;;4.15;;
31043;SDS011;17710;52.520;13.352;2023-10-09T11:38:38;9.07;;;5.03;;
31043;SDS011;17710;52.520;13.352;2023-10-09T11:43:50;9.65;;;4.60;;
31043;SDS011;17710;52.520;13.352;2023-10-09T11:46:18;8.05;;;4.68;;
31043;SDS011;17710;52.520;13.352;2023-10-09T11:51:50;6.55;;;4.40;;
31043;SDS011;17710;52.520;13.352;2023-10-09T11:54:50;10.02;;;4.40;;
31043;SDS011;17710;52.520;13.352;2023-10-09T11:58:00;5.70;;;4.13;;
31043;SDS011;17710;52.520;13.352;2023-10-09T12:00:29;6.85;;;3.85;;
31043;SDS011;17710;52.520;13.352;2023-10-09T12:03:09;7.05;;;4.35;;
31043;SDS011;17710;52.520;13.352;2023-10-09T12:05:35;8.55;;;4.80;;
31043;SDS011;17710;52.520;13.352;2023-10-09T12:08:02;8.10;;;5.00;;
31043;SDS011;17710;52.520;13.352;2023-10-09T12:10:33;9.73;;;5.57;;
31043;SDS011;17710;52.520;13.352;2023-10-09T12:13:03;7.88;;;5.28;;
31043;SDS011;17710;52.520;13.352;2023-10-09T12:15:30;9.18;;;5.20;;
31043;SDS011;17710;52.520;13.352;2023-10-09T12:18:16;7.30;;;5.53;;
31043;SDS011;17710;52.520;13.352;2023-10-09T12:20:44;8.40;;;5.25;;
31043;SDS011;17710;52.520;13.352;2023-10-09T12:23:15;7.03;;;5.32;;
31043;SDS011;17710;52.520;13.352;2023-10-09T12:25:43;10.32;;;5.95;;
31043;SDS011;17710;52.520;13.352;2023-10-09T12:28:10;8.70;;;5.70;;
31043;SDS011;17710;52.520;13.352;2023-10-09T12:30:38;7.43;;;5.43;;
31043;SDS011;17710;52.520;13.352;2023-10-09T12:33:05;8.00;;;5.18;;
31043;SDS011;17710;52.520;13.352;2023-10-09T12:35:36;9.05;;;5.00;;
31043;SDS011;17710;52.520;13.352;2023-10-09T12:38:03;9.93;;;5.47;;
31043;SDS011;17710;52.520;13.352;2023-10-09T12:40:35;11.80;;;5.25;;
31043;SDS011;17710;52.520;13.352;2023-10-09T12:43:15;8.45;;;5.28;;
31043;SDS011;17710;52.520;13.352;2023-10-09T12:45:42;6.53;;;5.30;;
31043;SDS011;17710;52.520;13.352;2023-10-09T12:48:11;7.95;;;5.07;;
31043;SDS011;17710;52.520;13.352;2023-10-09T12:50:40;9.02;;;5.38;;
31043;SDS011;17710;52.520;13.352;2023-10-09T12:53:10;8.20;;;5.40;;
31043;SDS011;17710;52.520;13.352;2023-10-09T12:55:42;13.00;;;5.93;;
31043;SDS011;17710;52.520;13.352;2023-10-09T12:58:10;10.82;;;5.85;;
31043;SDS011;17710;52.520;13.352;2023-10-09T13:00:39;9.32;;;5.95;;
31043;SDS011;17710;52.520;13.352;2023-10-09T13:03:09;10.98;;;6.13;;
31043;SDS011;17710;52.520;13.352;2023-10-09T13:05:47;11.80;;;6.07;;
31043;SDS011;17710;52.520;13.352;2023-10-09T13:08:21;9.13;;;6.15;;
31043;SDS011;17710;52.520;13.352;2023-10-09T13:10:49;10.88;;;7.18;;
31043;SDS011;17710;52.520;13.352;2023-10-09T13:13:26;13.65;;;6.68;;
31043;SDS011;17710;52.520;13.352;2023-10-09T13:16:04;10.70;;;7.50;;
31043;SDS011;17710;52.520;13.352;2023-10-09T13:18:38;10.13;;;7.10;;
31043;SDS011;17710;52.520;13.352;2023-10-09T13:21:07;10.88;;;7.80;;
31043;SDS011;17710;52.520;13.352;2023-10-09T13:23:33;12.82;;;7.78;;
31043;SDS011;17710;52.520;13.352;2023-10-09T13:26:05;10.88;;;7.85;;
31043;SDS011;17710;52.520;13.352;2023-10-09T13:28:42;12.07;;;8.00;;
31043;SDS011;17710;52.520;13.352;2023-10-09T13:31:13;11.50;;;7.50;;
31043;SDS011;17710;52.520;13.352;2023-10-09T13:33:40;12.25;;;7.38;;
31043;SDS011;17710;52.520;13.352;2023-10-09T13:36:08;11.48;;;8.13;;
31043;SDS011;17710;52.520;13.352;2023-10-09T13:38:42;12.25;;;7.85;;
31043;SDS011;17710;52.520;13.352;2023-10-09T13:41:09;13.68;;;8.25;;
31043;SDS011;17710;52.520;13.352;2023-10-09T13:43:38;12.05;;;8.85;;
31043;SDS011;17710;52.520;13.352;2023-10-09T13:46:06;13.23;;;7.82;;
31043;SDS011;17710;52.520;13.352;2023-10-09T13:48:33;10.40;;;7.90;;
31043;SDS011;17710;52.520;13.352;2023-10-09T13:51:03;12.00;;;8.95;;
31043;SDS011;17710;52.520;13.352;2023-10-09T13:53:34;14.63;;;8.98;;
31043;SDS011;17710;52.520;13.352;2023-10-09T13:56:01;12.95;;;9.32;;
31043;SDS011;17710;52.520;13.352;2023-10-09T13:58:27;12.88;;;8.65;;
31043;SDS011;17710;52.520;13.352;2023-10-09T14:00:56;13.07;;;8.82;;
31043;SDS011;17710;52.520;13.352;2023-10-09T14:03:22;11.40;;;8.18;;
31043;SDS011;17710;52.520;13.352;2023-10-09T14:05:49;12.48;;;7.85;;
31043;SDS011;17710;52.520;13.352;2023-10-09T14:08:20;12.02;;;7.93;;
31043;SDS011;17710;52.520;13.352;2023-10-09T14:10:49;11.57;;;7.50;;
31043;SDS011;17710;52.520;13.352;2023-10-09T14:13:16;9.82;;;7.78;;
31043;SDS011;17710;52.520;13.352;2023-10-09T14:15:50;13.27;;;8.60;;
31043;SDS011;17710;52.520;13.352;2023-10-09T14:18:19;11.00;;;7.60;;
31043;SDS011;17710;52.520;13.352;2023-10-09T14:20:45;11.32;;;8.15;;
31043;SDS011;17710;52.520;13.352;2023-10-09T14:23:12;10.88;;;7.70;;
31043;SDS011;17710;52.520;13.352;2023-10-09T14:25:45;14.52;;;8.00;;
31043;SDS011;17710;52.520;13.352;2023-10-09T14:28:16;13.65;;;8.02;;
31043;SDS011;17710;52.520;13.352;2023-10-09T14:30:44;11.60;;;7.13;;
31043;SDS011;17710;52.520;13.352;2023-10-09T14:33:15;9.00;;;7.30;;
31043;SDS011;17710;52.520;13.352;2023-10-09T14:35:47;14.77;;;7.85;;
31043;SDS011;17710;52.520;13.352;2023-10-09T14:38:17;9.05;;;7.10;;
31043;SDS011;17710;52.520;13.352;2023-10-09T14:40:47;9.98;;;7.55;;
31043;SDS011;17710;52.520;13.352;2023-10-09T14:43:13;9.60;;;7.45;;
31043;SDS011;17710;52.520;13.352;2023-10-09T14:45:46;10.00;;;7.00;;
31043;SDS011;17710;52.520;13.352;2023-10-09T14:48:14;8.80;;;7.03;;
31043;SDS011;17710;52.520;13.352;2023-10-09T14:50:45;13.40;;;8.45;;
31043;SDS011;17710;52.520;13.352;2023-10-09T14:53:13;11.85;;;8.25;;
31043;SDS011;17710;52.520;13.352;2023-10-09T14:55:40;12.77;;;8.30;;
31043;SDS011;17710;52.520;13.352;2023-10-09T14:58:10;11.15;;;8.20;;
31043;SDS011;17710;52.520;13.352;2023-10-09T15:00:37;8.52;;;6.82;;
31043;SDS011;17710;52.520;13.352;2023-10-09T15:03:05;10.27;;;7.57;;
31043;SDS011;17710;52.520;13.352;2023-10-09T15:05:37;9.02;;;7.55;;
31043;SDS011;17710;52.520;13.352;2023-10-09T15:10:52;9.60;;;6.60;;
31043;SDS011;17710;52.520;13.352;2023-10-09T15:13:21;7.70;;;6.90;;
31043;SDS011;17710;52.520;13.352;2023-10-09T15:15:52;9.05;;;6.38;;
31043;SDS011;17710;52.520;13.352;2023-10-09T15:18:21;11.98;;;7.43;;
31043;SDS011;17710;52.520;13.352;2023-10-09T15:20:48;10.60;;;7.40;;
31043;SDS011;17710;52.520;13.352;2023-10-09T15:23:16;11.18;;;7.85;;
31043;SDS011;17710;52.520;13.352;2023-10-09T15:25:44;10.32;;;7.75;;
31043;SDS011;17710;52.520;13.352;2023-10-09T15:28:14;12.20;;;8.38;;
31043;SDS011;17710;52.520;13.352;2023-10-09T15:30:42;14.95;;;8.63;;